createdAt,value
2023-05-25T00:01:00.473Z,83.94
2023-05-25T00:03:33.112Z,84.10
2023-05-25T00:06:02.334Z,84.00
2023-05-25T00:08:30.727Z,83.98
2023-05-25T00:10:58.779Z,84.07
2023-05-25T00:13:26.517Z,83.98
2023-05-25T00:15:54.320Z,84.04
2023-05-25T00:18:22.782Z,84.20
2023-05-25T00:20:54.331Z,84.32
2023-05-25T00:23:22.270Z,84.33
2023-05-25T00:25:50.208Z,84.36
2023-05-25T00:28:18.019Z,84.44
2023-05-25T00:30:45.850Z,84.46
2023-05-25T00:33:14.156Z,84.44
2023-05-25T00:35:43.565Z,84.36
2023-05-25T00:38:16.953Z,84.32
2023-05-25T00:40:45.608Z,84.32
2023-05-25T00:43:13.741Z,84.19
2023-05-25T00:45:41.613Z,84.16
2023-05-25T00:48:10.893Z,84.28
2023-05-25T00:50:41.996Z,84.13
2023-05-25T00:53:12.050Z,84.14
2023-05-25T00:55:49.624Z,84.22
2023-05-25T00:58:21.234Z,84.16
2023-05-25T01:00:51.649Z,84.22
2023-05-25T01:03:22.550Z,84.20
2023-05-25T01:05:52.261Z,84.15
2023-05-25T01:08:22.807Z,84.02
2023-05-25T01:10:52.644Z,84.00
2023-05-25T01:13:21.414Z,84.11
2023-05-25T01:15:51.913Z,84.09
2023-05-25T01:18:19.723Z,84.04
2023-05-25T01:21:14.809Z,84.01
2023-05-25T01:23:51.409Z,84.15
2023-05-25T01:26:23.877Z,84.12
2023-05-25T01:28:53.973Z,84.09
2023-05-25T01:31:23.587Z,84.15
2023-05-25T01:33:53.449Z,84.10
2023-05-25T01:36:21.518Z,84.14
2023-05-25T01:38:50.076Z,84.10
2023-05-25T01:41:18.335Z,84.09
2023-05-25T01:43:46.695Z,84.05
2023-05-25T01:46:28.120Z,84.00
2023-05-25T01:49:08.869Z,84.05
2023-05-25T01:51:44.911Z,84.08
2023-05-25T01:54:30.669Z,84.04
2023-05-25T01:57:02.027Z,83.95
2023-05-25T01:59:31.828Z,83.95
2023-05-25T02:02:01.455Z,83.89
2023-05-25T02:04:30.603Z,84.05
2023-05-25T02:06:58.366Z,83.97
2023-05-25T02:09:26.157Z,83.91
2023-05-25T02:11:54.335Z,83.86
2023-05-25T02:14:22.772Z,83.88
2023-05-25T02:16:50.965Z,83.88
2023-05-25T02:19:19.298Z,84.04
2023-05-25T02:21:47.192Z,83.99
2023-05-25T02:24:14.956Z,84.00
2023-05-25T02:26:42.666Z,84.01
2023-05-25T02:29:11.798Z,84.03
2023-05-25T02:31:40.172Z,84.10
2023-05-25T02:34:07.954Z,84.13
2023-05-25T02:36:36.529Z,84.33
2023-05-25T02:39:04.290Z,84.21
2023-05-25T02:41:31.993Z,84.16
2023-05-25T02:44:00.192Z,84.16
2023-05-25T02:46:28.584Z,84.17
2023-05-25T02:48:59.106Z,84.20
2023-05-25T02:51:28.035Z,84.19
2023-05-25T02:53:55.784Z,84.33
2023-05-25T02:56:23.581Z,84.25
2023-05-25T02:58:51.828Z,84.23
2023-05-25T03:01:20.109Z,84.19
2023-05-25T03:03:52.660Z,84.15
2023-05-25T03:06:23.397Z,84.11
2023-05-25T03:08:51.194Z,84.07
2023-05-25T03:11:18.973Z,84.07
2023-05-25T03:13:47.764Z,84.07
2023-05-25T03:16:15.559Z,83.98
2023-05-25T03:18:43.714Z,83.92
2023-05-25T03:21:11.499Z,83.98
2023-05-25T03:23:39.282Z,83.97
2023-05-25T03:26:07.611Z,83.95
2023-05-25T03:28:36.021Z,83.98
2023-05-25T03:31:04.696Z,83.95
2023-05-25T03:33:33.410Z,83.98
2023-05-25T03:36:01.653Z,83.92
2023-05-25T03:38:29.401Z,83.88
2023-05-25T03:40:57.580Z,83.93
2023-05-25T03:43:26.077Z,83.89
2023-05-25T03:45:53.915Z,83.82
2023-05-25T03:48:21.719Z,83.77
2023-05-25T03:50:49.581Z,83.93
2023-05-25T03:53:17.749Z,83.83
2023-05-25T03:55:46.290Z,83.73
2023-05-25T03:58:14.800Z,83.69
2023-05-25T04:00:42.639Z,83.64
2023-05-25T04:03:11.159Z,83.62
2023-05-25T04:05:39.389Z,83.66
2023-05-25T04:08:08.646Z,83.50
2023-05-25T04:10:36.470Z,83.48
2023-05-25T04:13:04.233Z,83.42
2023-05-25T04:15:34.677Z,83.38
2023-05-25T04:18:03.260Z,83.35
2023-05-25T04:20:31.077Z,83.31
2023-05-25T04:22:58.889Z,83.36
2023-05-25T04:25:42.284Z,83.37
2023-05-25T04:28:12.545Z,83.29
2023-05-25T04:30:41.779Z,83.28
2023-05-25T04:33:11.710Z,83.23
2023-05-25T04:35:40.968Z,83.21
2023-05-25T04:38:08.850Z,83.19
2023-05-25T04:40:37.159Z,83.20
2023-05-25T04:43:05.276Z,83.15
2023-05-25T04:45:33.586Z,83.18
2023-05-25T04:48:01.950Z,83.10
2023-05-25T04:50:29.847Z,83.03
2023-05-25T04:52:57.658Z,83.01
2023-05-25T04:55:25.958Z,82.96
2023-05-25T04:57:55.060Z,82.98
2023-05-25T05:00:22.913Z,82.90
2023-05-25T05:02:51.618Z,82.81
2023-05-25T05:05:19.558Z,82.82
2023-05-25T05:07:47.507Z,82.88
2023-05-25T05:10:15.870Z,82.93
2023-05-25T05:12:44.148Z,82.95
2023-05-25T05:15:12.123Z,82.97
2023-05-25T05:17:39.895Z,82.96
2023-05-25T05:20:08.628Z,82.92
2023-05-25T05:22:37.902Z,82.83
2023-05-25T05:25:07.485Z,82.77
2023-05-25T05:27:36.183Z,82.69
2023-05-25T05:30:04.551Z,82.63
2023-05-25T05:32:32.353Z,82.61
2023-05-25T05:35:00.876Z,82.61
2023-05-25T05:37:28.674Z,82.60
2023-05-25T05:39:56.806Z,82.59
2023-05-25T05:42:25.133Z,82.67
2023-05-25T05:44:52.922Z,82.67
2023-05-25T05:47:21.444Z,82.68
2023-05-25T05:49:49.244Z,82.70
2023-05-25T05:52:17.520Z,82.72
2023-05-25T05:54:45.813Z,82.69
2023-05-25T05:57:13.544Z,82.75
2023-05-25T05:59:42.152Z,82.80
2023-05-25T06:02:10.256Z,82.75
2023-05-25T06:04:38.562Z,82.71
2023-05-25T06:07:07.038Z,82.64
2023-05-25T06:09:35.297Z,82.69
2023-05-25T06:12:03.652Z,82.71
2023-05-25T06:14:31.977Z,82.69
2023-05-25T06:16:59.986Z,82.69
2023-05-25T06:19:28.006Z,82.62
2023-05-25T06:21:56.270Z,82.56
2023-05-25T06:24:24.657Z,82.55
2023-05-25T06:26:52.440Z,82.62
2023-05-25T06:29:20.262Z,82.67
2023-05-25T06:31:48.086Z,82.68
2023-05-25T06:34:16.415Z,82.72
2023-05-25T06:36:44.702Z,82.75
2023-05-25T06:39:12.602Z,82.67
2023-05-25T06:41:40.780Z,82.52
2023-05-25T06:44:09.232Z,82.34
2023-05-25T06:46:37.433Z,82.21
2023-05-25T06:49:05.884Z,82.03
2023-05-25T06:51:34.459Z,81.90
2023-05-25T06:54:02.250Z,81.82
2023-05-25T06:56:30.171Z,81.75
2023-05-25T06:59:00.000Z,81.77
2023-05-25T07:01:28.308Z,81.76
2023-05-25T07:03:56.755Z,81.72
2023-05-25T07:06:24.571Z,81.68
2023-05-25T07:08:52.311Z,81.63
2023-05-25T07:11:22.117Z,81.60
2023-05-25T07:13:50.025Z,81.61
2023-05-25T07:16:18.356Z,81.57
2023-05-25T07:18:46.840Z,81.47
2023-05-25T07:21:14.738Z,81.44
2023-05-25T07:23:42.489Z,81.39
2023-05-25T07:26:10.293Z,81.30
2023-05-25T07:28:38.148Z,81.27
2023-05-25T07:31:06.386Z,81.25
2023-05-25T07:33:34.592Z,81.27
2023-05-25T07:36:02.439Z,81.33
2023-05-25T07:38:30.288Z,81.19
2023-05-25T07:40:58.144Z,81.00
2023-05-25T07:43:25.951Z,80.93
2023-05-25T07:45:54.870Z,80.90
2023-05-25T07:48:23.210Z,80.84
2023-05-25T07:50:50.986Z,80.75
2023-05-25T07:53:18.754Z,80.63
2023-05-25T07:55:46.740Z,80.45
2023-05-25T07:58:14.839Z,80.23
2023-05-25T08:00:43.940Z,80.27
2023-05-25T08:03:12.459Z,80.28
2023-05-25T08:05:40.887Z,80.08
2023-05-25T08:08:09.891Z,80.14
2023-05-25T08:10:37.680Z,80.09
2023-05-25T08:13:05.957Z,79.80
2023-05-25T08:15:34.209Z,79.65
2023-05-25T08:18:04.545Z,79.29
2023-05-25T08:20:32.545Z,79.11
2023-05-25T08:23:01.955Z,78.97
2023-05-25T08:25:29.810Z,78.93
2023-05-25T08:27:58.228Z,78.90
2023-05-25T08:30:26.629Z,78.94
2023-05-25T08:32:54.591Z,78.91
2023-05-25T08:35:22.491Z,78.81
2023-05-25T08:37:50.218Z,78.67
2023-05-25T08:40:21.806Z,78.55
2023-05-25T08:42:49.640Z,78.51
2023-05-25T08:45:33.671Z,78.55
2023-05-25T08:48:09.474Z,78.52
2023-05-25T08:50:39.050Z,78.43
2023-05-25T08:53:11.901Z,78.49
2023-05-25T08:55:43.914Z,78.45
2023-05-25T08:58:17.298Z,78.57
2023-05-25T09:00:55.276Z,78.69
2023-05-25T09:03:24.112Z,78.44
2023-05-25T09:05:52.628Z,78.30
2023-05-25T09:08:22.471Z,78.24
2023-05-25T09:10:52.170Z,78.10
2023-05-25T09:13:22.621Z,78.04
2023-05-25T09:15:53.109Z,77.98
2023-05-25T09:18:21.620Z,77.84
2023-05-25T09:20:50.049Z,77.78
2023-05-25T09:23:19.125Z,77.65
2023-05-25T09:25:50.690Z,77.57
2023-05-25T09:30:53.205Z,77.28
2023-05-25T09:33:21.565Z,77.17
2023-05-25T09:35:49.523Z,77.12
2023-05-25T09:38:17.604Z,77.19
2023-05-25T09:40:46.082Z,77.31
2023-05-25T09:43:21.960Z,77.22
2023-05-25T09:45:57.138Z,77.22
2023-05-25T09:48:26.338Z,77.19
2023-05-25T09:50:54.093Z,76.96
2023-05-25T09:53:21.860Z,76.80
2023-05-25T09:55:54.323Z,76.59
2023-05-25T09:58:25.290Z,76.39
2023-05-25T10:00:55.632Z,75.84
2023-05-25T10:03:23.644Z,75.69
2023-05-25T10:05:53.556Z,75.40
2023-05-25T10:08:22.243Z,75.15
2023-05-25T10:10:51.473Z,75.01
2023-05-25T10:13:23.063Z,74.89
2023-05-25T10:15:54.535Z,74.78
2023-05-25T10:18:28.138Z,74.40
2023-05-25T10:21:04.370Z,74.33
2023-05-25T10:23:42.153Z,74.48
2023-05-25T10:26:15.063Z,74.34
2023-05-25T10:28:46.083Z,74.23
2023-05-25T10:31:16.946Z,74.18
2023-05-25T10:33:50.550Z,74.25
2023-05-25T10:36:21.349Z,74.22
2023-05-25T10:38:51.527Z,74.28
2023-05-25T10:41:21.798Z,73.88
2023-05-25T10:43:51.481Z,73.71
2023-05-25T10:46:19.634Z,73.69
2023-05-25T10:48:49.656Z,73.86
2023-05-25T10:51:20.724Z,73.82
2023-05-25T10:54:02.301Z,73.80
2023-05-25T10:56:30.216Z,73.78
2023-05-25T10:58:58.694Z,73.55
2023-05-25T11:01:27.056Z,73.89
2023-05-25T11:04:11.385Z,73.94
2023-05-25T11:06:45.799Z,73.96
2023-05-25T11:09:25.590Z,73.60
2023-05-25T11:11:55.591Z,73.23
2023-05-25T11:14:29.871Z,73.13
2023-05-25T11:17:06.414Z,73.08
2023-05-25T11:19:50.127Z,72.56
2023-05-25T11:22:23.783Z,72.82
2023-05-25T11:24:53.178Z,72.69
2023-05-25T11:27:27.440Z,72.58
2023-05-25T11:29:59.434Z,72.23
2023-05-25T11:32:28.333Z,72.00
2023-05-25T11:34:58.254Z,71.69
2023-05-25T11:37:31.886Z,71.34
2023-05-25T11:40:00.765Z,71.10
2023-05-25T11:42:29.871Z,70.99
2023-05-25T11:45:02.645Z,71.00
2023-05-25T11:47:32.751Z,71.13
2023-05-25T11:50:01.461Z,71.08
2023-05-25T11:52:29.344Z,71.06
2023-05-25T11:54:58.044Z,70.97
2023-05-25T11:57:26.328Z,70.90
2023-05-25T12:00:00.424Z,70.91
2023-05-25T12:02:28.336Z,70.75
2023-05-25T12:05:02.572Z,70.50
2023-05-25T12:07:34.350Z,70.19
2023-05-25T12:10:06.045Z,70.06
2023-05-25T12:12:40.479Z,69.86
2023-05-25T12:15:15.347Z,69.83
2023-05-25T12:17:45.595Z,69.94
2023-05-25T12:20:15.588Z,69.97
2023-05-25T12:22:44.814Z,69.94
2023-05-25T12:25:14.113Z,69.66
2023-05-25T12:27:42.350Z,69.81
2023-05-25T12:30:12.850Z,70.07
2023-05-25T12:32:54.836Z,70.04
2023-05-25T12:35:22.758Z,70.10
2023-05-25T12:37:50.488Z,70.26
2023-05-25T12:40:20.953Z,70.31
2023-05-25T12:42:57.210Z,70.30
2023-05-25T12:45:25.080Z,70.59
2023-05-25T12:47:52.917Z,71.01
2023-05-25T12:50:20.830Z,71.07
2023-05-25T12:52:48.839Z,71.07
2023-05-25T12:55:22.677Z,70.98
2023-05-25T12:57:52.842Z,70.75
2023-05-25T13:00:41.779Z,71.08
2023-05-25T13:03:09.687Z,71.09
2023-05-25T13:05:38.776Z,71.04
2023-05-25T13:08:07.250Z,71.02
2023-05-25T13:10:38.321Z,71.21
2023-05-25T13:13:06.074Z,71.41
2023-05-25T13:15:33.819Z,71.29
2023-05-25T13:18:01.631Z,71.16
2023-05-25T13:20:30.705Z,70.85
2023-05-25T13:22:58.919Z,70.52
2023-05-25T13:25:29.990Z,70.19
2023-05-25T13:27:59.932Z,70.17
2023-05-25T13:30:27.858Z,70.27
2023-05-25T13:32:55.619Z,70.22
2023-05-25T13:35:37.419Z,70.46
2023-05-25T13:38:06.503Z,70.44
2023-05-25T13:40:34.582Z,70.22
2023-05-25T13:43:02.354Z,70.34
2023-05-25T13:45:30.169Z,70.60
2023-05-25T13:47:57.957Z,70.66
2023-05-25T13:50:26.313Z,70.72
2023-05-25T13:52:54.378Z,70.86
2023-05-25T13:55:23.343Z,71.06
2023-05-25T13:57:52.238Z,71.06
2023-05-25T14:00:20.409Z,70.99
2023-05-25T14:02:48.979Z,71.10
2023-05-25T14:05:16.886Z,71.18
2023-05-25T14:07:44.657Z,71.07
2023-05-25T14:10:12.556Z,70.95
2023-05-25T14:12:41.132Z,70.94
2023-05-25T14:15:09.803Z,70.84
2023-05-25T14:17:38.003Z,70.88
2023-05-25T14:20:07.195Z,71.22
2023-05-25T14:22:34.988Z,71.33
2023-05-25T14:25:02.806Z,71.52
2023-05-25T14:27:30.603Z,71.46
2023-05-25T14:29:58.902Z,71.43
2023-05-25T14:32:27.162Z,71.43
2023-05-25T14:34:54.907Z,71.39
2023-05-25T14:37:22.666Z,71.21
2023-05-25T14:39:50.388Z,71.33
2023-05-25T14:42:18.224Z,71.26
2023-05-25T14:44:46.364Z,71.05
2023-05-25T14:47:14.834Z,71.00
2023-05-25T14:49:42.737Z,71.00
2023-05-25T14:52:10.591Z,71.02
2023-05-25T14:54:44.027Z,71.05
2023-05-25T14:57:12.302Z,71.04
2023-05-25T14:59:40.519Z,71.12
2023-05-25T15:02:08.924Z,71.09
2023-05-25T15:04:36.694Z,71.03
2023-05-25T15:07:04.659Z,70.84
2023-05-25T15:09:33.566Z,70.65
2023-05-25T15:12:02.152Z,70.49
2023-05-25T15:14:30.719Z,70.60
2023-05-25T15:16:59.602Z,70.74
2023-05-25T15:19:27.355Z,70.88
2023-05-25T15:21:55.042Z,70.69
2023-05-25T15:24:22.744Z,70.56
2023-05-25T15:26:50.467Z,70.27
2023-05-25T15:29:18.704Z,70.09
2023-05-25T15:31:50.102Z,69.90
2023-05-25T15:34:17.852Z,69.80
2023-05-25T15:36:47.571Z,69.94
2023-05-25T15:39:15.665Z,70.16
2023-05-25T15:41:44.022Z,70.13
2023-05-25T15:44:12.728Z,70.13
2023-05-25T15:46:41.138Z,70.08
2023-05-25T15:49:12.181Z,70.03
2023-05-25T15:51:44.636Z,69.94
2023-05-25T15:54:14.770Z,69.67
2023-05-25T15:56:43.355Z,69.87
2023-05-25T15:59:12.683Z,70.01
2023-05-25T16:01:40.801Z,70.21
2023-05-25T16:04:09.003Z,70.34
2023-05-25T16:06:38.502Z,70.46
2023-05-25T16:09:07.043Z,70.52
2023-05-25T16:11:34.849Z,70.65
2023-05-25T16:14:02.596Z,70.66
2023-05-25T16:16:30.406Z,70.85
2023-05-25T16:18:58.213Z,71.09
2023-05-25T16:21:26.870Z,71.30
2023-05-25T16:23:55.231Z,71.60
2023-05-25T16:26:23.989Z,71.60
2023-05-25T16:28:51.712Z,71.69
2023-05-25T16:31:19.526Z,71.64
2023-05-25T16:33:47.433Z,71.77
2023-05-25T16:36:16.822Z,71.86
2023-05-25T16:38:45.862Z,71.93
2023-05-25T16:41:13.600Z,72.13
2023-05-25T16:43:41.442Z,72.21
2023-05-25T16:46:09.256Z,72.22
2023-05-25T16:48:36.989Z,72.37
2023-05-25T16:51:05.261Z,72.62
2023-05-25T16:53:33.588Z,72.67
2023-05-25T16:56:01.409Z,72.68
2023-05-25T16:58:29.155Z,72.83
2023-05-25T17:00:56.830Z,73.25
2023-05-25T17:03:24.626Z,73.22
2023-05-25T17:05:53.910Z,73.27
2023-05-25T17:08:22.224Z,73.24
2023-05-25T17:10:49.997Z,73.37
2023-05-25T17:13:17.717Z,73.57
2023-05-25T17:15:45.554Z,73.71
2023-05-25T17:18:13.548Z,73.80
2023-05-25T17:20:41.967Z,73.99
2023-05-25T17:23:10.328Z,74.08
2023-05-25T17:25:39.464Z,74.25
2023-05-25T17:28:07.348Z,74.37
2023-05-25T17:30:35.137Z,74.60
2023-05-25T17:33:02.868Z,74.78
2023-05-25T17:35:31.323Z,75.14
2023-05-25T17:37:59.655Z,75.09
2023-05-25T17:40:27.351Z,75.24
2023-05-25T17:42:55.083Z,75.49
2023-05-25T17:45:22.853Z,75.83
2023-05-25T17:47:50.770Z,76.16
2023-05-25T17:50:19.051Z,76.30
2023-05-25T17:52:47.336Z,76.48
2023-05-25T17:55:15.047Z,76.98
2023-05-25T17:57:42.852Z,77.05
2023-05-25T18:00:11.113Z,77.05
2023-05-25T18:02:38.971Z,77.22
2023-05-25T18:05:07.582Z,77.50
2023-05-25T18:07:35.738Z,77.64
2023-05-25T18:10:03.628Z,77.73
2023-05-25T18:12:31.469Z,77.86
2023-05-25T18:14:59.184Z,78.00
2023-05-25T18:17:26.955Z,78.10
2023-05-25T18:19:55.241Z,78.54
2023-05-25T18:22:23.385Z,78.60
2023-05-25T18:24:51.198Z,78.73
2023-05-25T18:27:19.058Z,78.95
2023-05-25T18:29:46.767Z,79.14
2023-05-25T18:32:14.448Z,79.31
2023-05-25T18:34:45.039Z,79.28
2023-05-25T18:37:13.260Z,79.63
2023-05-25T18:39:41.708Z,79.97
2023-05-25T18:42:09.422Z,79.91
2023-05-25T18:44:37.114Z,80.09
2023-05-25T18:47:05.080Z,80.36
2023-05-25T18:49:34.671Z,80.66
2023-05-25T18:52:04.002Z,80.90
2023-05-25T18:54:31.656Z,81.04
2023-05-25T18:56:59.358Z,81.33
2023-05-25T18:59:27.158Z,81.54
2023-05-25T19:01:55.012Z,81.66
2023-05-25T19:04:23.286Z,81.80
2023-05-25T19:06:51.648Z,81.99
2023-05-25T19:09:19.341Z,82.16
2023-05-25T19:11:47.030Z,82.32
2023-05-25T19:14:14.773Z,82.44
2023-05-25T19:16:43.412Z,82.41
2023-05-25T19:19:11.877Z,82.39
2023-05-25T19:21:39.580Z,82.47
2023-05-25T19:24:09.854Z,82.51
2023-05-25T19:26:38.868Z,82.69
2023-05-25T19:29:07.164Z,82.79
2023-05-25T19:31:35.467Z,82.75
2023-05-25T19:34:03.295Z,82.89
2023-05-25T19:36:31.173Z,83.07
2023-05-25T19:38:58.901Z,83.20
2023-05-25T19:41:26.701Z,83.36
2023-05-25T19:43:55.008Z,83.42
2023-05-25T19:46:23.946Z,83.61
2023-05-25T19:48:52.086Z,83.77
2023-05-25T19:51:19.798Z,83.77
2023-05-25T19:53:49.091Z,83.76
2023-05-25T19:56:16.917Z,83.81
2023-05-25T19:58:45.193Z,83.92
2023-05-25T20:01:13.554Z,84.01
2023-05-25T20:03:41.807Z,84.13
2023-05-25T20:06:09.925Z,84.25
2023-05-25T20:08:37.693Z,84.43
2023-05-25T20:11:05.596Z,84.49
2023-05-25T20:13:34.233Z,84.65
2023-05-25T20:16:02.590Z,84.77
2023-05-25T20:18:30.318Z,84.74
2023-05-25T20:20:58.017Z,84.61
2023-05-25T20:23:25.899Z,84.65
2023-05-25T20:25:53.715Z,84.63
2023-05-25T20:28:21.972Z,84.61
2023-05-25T20:30:50.615Z,84.73
2023-05-25T20:33:18.393Z,84.71
2023-05-25T20:35:46.457Z,84.87
2023-05-25T20:38:14.399Z,84.80
2023-05-25T20:40:42.136Z,84.79
2023-05-25T20:43:10.401Z,84.65
2023-05-25T20:45:38.744Z,84.58
2023-05-25T20:48:06.591Z,84.60
2023-05-25T20:50:34.448Z,84.64
2023-05-25T20:53:02.163Z,84.37
2023-05-25T20:55:30.763Z,84.43
2023-05-25T20:58:15.036Z,84.42
2023-05-25T21:00:50.013Z,84.56
2023-05-25T21:03:18.230Z,84.61
2023-05-25T21:05:46.773Z,84.64
2023-05-25T21:08:15.392Z,84.60
2023-05-25T21:10:43.124Z,84.74
2023-05-25T21:13:10.958Z,84.91
2023-05-25T21:15:39.158Z,84.98
2023-05-25T21:18:08.578Z,85.05
2023-05-25T21:20:37.181Z,85.04
2023-05-25T21:23:04.916Z,84.99
2023-05-25T21:25:32.624Z,85.07
2023-05-25T21:28:00.326Z,85.12
2023-05-25T21:30:28.560Z,85.26
2023-05-25T21:32:56.798Z,85.37
2023-05-25T21:35:24.579Z,85.42
2023-05-25T21:37:52.370Z,85.49
2023-05-25T21:40:20.086Z,85.53
2023-05-25T21:42:50.347Z,85.61
2023-05-25T21:45:20.058Z,85.69
2023-05-25T21:47:47.996Z,85.64
2023-05-25T21:50:16.613Z,85.74
2023-05-25T21:52:44.356Z,85.77
2023-05-25T21:55:12.107Z,85.86
2023-05-25T21:57:40.365Z,85.93
2023-05-25T22:00:10.766Z,85.99
2023-05-25T22:02:38.525Z,85.92
2023-05-25T22:05:07.230Z,85.87
2023-05-25T22:07:34.939Z,85.87
2023-05-25T22:10:02.653Z,85.91
2023-05-25T22:12:30.349Z,85.86
2023-05-25T22:14:58.049Z,85.85
2023-05-25T22:17:26.059Z,85.70
2023-05-25T22:20:06.502Z,85.72
2023-05-25T22:22:37.505Z,85.59
2023-05-25T22:25:06.235Z,85.59
2023-05-25T22:27:33.985Z,85.53
2023-05-25T22:30:01.909Z,85.58
2023-05-25T22:32:29.743Z,85.60
2023-05-25T22:34:57.450Z,85.66
2023-05-25T22:37:25.391Z,85.60
2023-05-25T22:39:53.639Z,85.65
2023-05-25T22:42:21.903Z,85.65
2023-05-25T22:44:51.360Z,85.65
2023-05-25T22:47:19.192Z,85.53
2023-05-25T22:49:46.939Z,85.53
2023-05-25T22:52:14.650Z,85.73
2023-05-25T22:54:43.139Z,85.83
2023-05-25T22:57:10.866Z,85.94
2023-05-25T22:59:38.693Z,85.96
2023-05-25T23:02:06.972Z,86.00
2023-05-25T23:04:38.172Z,85.86
2023-05-25T23:07:05.909Z,85.92
2023-05-25T23:09:33.624Z,85.96
2023-05-25T23:12:01.913Z,86.02
2023-05-25T23:14:30.654Z,85.97
2023-05-25T23:16:58.429Z,85.88
2023-05-25T23:19:26.116Z,85.78
2023-05-25T23:21:54.552Z,85.79
2023-05-25T23:24:22.327Z,85.87
2023-05-25T23:26:50.154Z,85.98
2023-05-25T23:29:17.851Z,85.99
2023-05-25T23:31:45.601Z,85.95
2023-05-25T23:34:13.385Z,85.86
2023-05-25T23:36:42.982Z,85.83
2023-05-25T23:39:10.689Z,85.80
2023-05-25T23:41:38.739Z,85.73
2023-05-25T23:44:06.549Z,85.73
2023-05-25T23:46:34.376Z,85.75
2023-05-25T23:49:02.101Z,85.91
2023-05-25T23:51:30.846Z,85.91
2023-05-25T23:53:58.600Z,85.99
2023-05-25T23:56:27.931Z,85.97
2023-05-25T23:58:56.955Z,86.15
